The Weather Page

Only for information, data not for operational purposes.

ELLX Aeronautical Report by METEOLUX

ELLX Current METAR and TAF

ELLX 280150Z AUTO 19005KT 2000 BR OVC001/// 14/14 Q1013 NOSIG

TAF ELLX 271700Z 2718/2824 23006KT 9999 FEW010 BKN030 TEMPO 2718/2720 4500 RA BKN010 TEMPO 2722/2808 BKN007 TEMPO 2809/2814 -SHRA SCT020TCU

METAR’s and TAF’s

METAR/TAF from US-NOAA-ADDS. Enter one or more ICAO codes separated by spaces:

METAR TAF 

A list of weather stations and their ICAO and IATA codes is found on this page.

Flight Preparation

EUMETSAT Infrared

Eumetsat Infrared

METEOX Radar

METEOX Radar Image


Share this

Comments are closed.